X  Cerrar Datos meteorológicos de aviación METAR        LGTS Thessaloniki Macedonia International
Temperatura
29°C Temperatura
21°C Punto de rocío
62% Humedad



Viento
3 M/S
6 MPH
9 KM/H
5 NUDO



280°
O
Condiciones actuales

Mostly Sunny Mayormente soleado
Presión 1016 (hPa) - 30 (inHg)
Visibilidad 6 (milla) - 10 (km)
Aeropuerto
Código de aeropuerto LGTS

localidad: Thessaloniki Macedonia International
Distancia: 85 (km)

Metar:
METAR LGTS 210620Z 28005KT CAVOK 29/21 Q1016 NOSIG

Hora: 21-06-2024 09:20 EEST